Time;durP1;ratioP1;P1;durP2;ratioP2;P2;SDS_P1;SDS_P2;PMS_P1;PMS_P2;Temp;Humidity;BMP_temperature;BMP_pressure;BME280_temperature;BME280_humidity;BME280_pressure;Samples;Min_cycle;Max_cycle;Signal;HPM_P1;HPM_P2
2023/01/08 00:02:09;;;;;;;13.00;10.47;;;;;;;;;;5053888;28;20446;-72
2023/01/08 00:04:36;;;;;;;10.70;9.70;;;;;;;;;;5056689;28;20481;-74
2023/01/08 00:07:03;;;;;;;11.23;10.23;;;;;;;;;;5060500;28;20445;-73
2023/01/08 00:09:30;;;;;;;10.77;9.80;;;;;;;;;;5061678;28;20453;-74
2023/01/08 00:11:59;;;;;;;10.70;9.80;;;;;;;;;;5061327;28;20445;-75
2023/01/08 00:14:26;;;;;;;10.30;9.23;;;;;;;;;;5061043;28;20437;-75
2023/01/08 00:16:53;;;;;;;9.77;8.87;;;;;;;;;;5057410;28;20445;-74
2023/01/08 00:19:20;;;;;;;10.43;9.43;;;;;;;;;;5053762;28;20477;-74
2023/01/08 00:21:47;;;;;;;10.73;9.73;;;;;;;;;;5053607;28;20442;-74
2023/01/08 00:24:14;;;;;;;10.87;9.77;;;;;;;;;;5063574;28;20417;-77
2023/01/08 00:26:41;;;;;;;11.43;10.33;;;;;;;;;;5078169;28;20433;-76
2023/01/08 00:29:09;;;;;;;10.80;9.70;;;;;;;;;;5069251;28;20473;-73
2023/01/08 00:31:36;;;;;;;11.37;10.27;;;;;;;;;;5055131;28;20749;-74
2023/01/08 00:34:03;;;;;;;11.23;10.17;;;;;;;;;;5052720;28;20755;-74
2023/01/08 00:36:30;;;;;;;10.80;9.80;;;;;;;;;;5051321;28;20549;-74
2023/01/08 00:38:59;;;;;;;11.07;10.07;;;;;;;;;;5057468;28;20553;-75
2023/01/08 00:41:26;;;;;;;10.80;9.70;;;;;;;;;;5058818;28;20461;-75
2023/01/08 00:43:53;;;;;;;12.33;11.07;;;;;;;;;;5065198;28;20448;-75
2023/01/08 00:46:21;;;;;;;11.00;9.90;;;;;;;;;;5072632;28;20485;-75
2023/01/08 00:48:48;;;;;;;11.57;10.57;;;;;;;;;;5072463;28;20468;-74
2023/01/08 00:51:15;;;;;;;11.30;10.20;;;;;;;;;;5072364;28;20452;-74
2023/01/08 00:53:42;;;;;;;11.17;10.17;;;;;;;;;;5072326;28;20444;-74
2023/01/08 00:56:10;;;;;;;10.97;9.90;;;;;;;;;;5072469;28;20447;-74
2023/01/08 00:58:37;;;;;;;11.03;10.10;;;;;;;;;;5072263;28;20987;-74
2023/01/08 01:01:09;;;;;;;9.83;9.03;;;;;;;;;;5072462;28;20445;-74
2023/01/08 01:03:37;;;;;;;10.97;9.87;;;;;;;;;;5071868;28;20453;-75
2023/01/08 01:06:06;;;;;;;10.40;9.50;;;;;;;;;;5072202;28;20484;-76
2023/01/08 01:08:33;;;;;;;10.87;9.77;;;;;;;;;;5071979;28;20464;-73
2023/01/08 01:11:00;;;;;;;12.00;10.90;;;;;;;;;;5072264;28;20452;-74
2023/01/08 01:13:27;;;;;;;12.07;10.80;;;;;;;;;;5071814;28;20437;-73
2023/01/08 01:15:58;;;;;;;11.23;10.13;;;;;;;;;;5071780;28;20441;-74
2023/01/08 01:18:25;;;;;;;10.97;10.00;;;;;;;;;;5051064;28;20527;-74
2023/01/08 01:20:53;;;;;;;10.13;9.23;;;;;;;;;;5052184;28;20446;-75
2023/01/08 01:23:20;;;;;;;10.73;9.60;;;;;;;;;;5058867;28;20444;-76
2023/01/08 01:25:47;;;;;;;11.40;10.40;;;;;;;;;;5052289;28;20482;-75
2023/01/08 01:28:15;;;;;;;14.80;9.93;;;;;;;;;;5052185;28;20476;-74
2023/01/08 01:30:42;;;;;;;10.80;9.70;;;;;;;;;;5052377;28;20512;-75
2023/01/08 01:33:09;;;;;;;11.40;10.40;;;;;;;;;;5051724;28;20937;-73
2023/01/08 01:35:36;;;;;;;10.23;9.20;;;;;;;;;;5051995;28;20448;-73
2023/01/08 01:38:04;;;;;;;10.30;9.30;;;;;;;;;;5051635;28;20472;-74
2023/01/08 01:40:31;;;;;;;10.90;9.80;;;;;;;;;;5052473;28;20787;-73
2023/01/08 01:42:58;;;;;;;9.50;8.70;;;;;;;;;;5051808;28;20430;-76
2023/01/08 01:45:26;;;;;;;10.73;9.73;;;;;;;;;;5051738;28;20536;-73
2023/01/08 01:47:55;;;;;;;11.47;10.37;;;;;;;;;;5050355;28;20930;-73
2023/01/08 01:50:23;;;;;;;10.13;9.20;;;;;;;;;;5051148;28;20472;-75
2023/01/08 01:52:55;;;;;;;11.53;10.43;;;;;;;;;;5050919;28;20445;-73
2023/01/08 01:55:23;;;;;;;10.47;9.47;;;;;;;;;;5051475;28;20451;-73
2023/01/08 01:57:53;;;;;;;10.07;9.20;;;;;;;;;;5050808;28;20458;-74
2023/01/08 02:00:22;;;;;;;10.17;9.23;;;;;;;;;;5051120;28;20456;-74
2023/01/08 02:02:49;;;;;;;11.03;9.93;;;;;;;;;;5051156;28;20495;-73
2023/01/08 02:05:16;;;;;;;10.70;9.70;;;;;;;;;;5050794;28;20481;-73
2023/01/08 02:07:48;;;;;;;11.87;10.70;;;;;;;;;;5050844;28;20461;-73
2023/01/08 02:10:17;;;;;;;11.37;10.23;;;;;;;;;;5050783;28;20449;-75
2023/01/08 02:12:48;;;;;;;11.70;10.60;;;;;;;;;;5050975;28;20445;-73
2023/01/08 02:15:20;;;;;;;12.53;11.27;;;;;;;;;;5051251;28;20451;-75
2023/01/08 02:17:50;;;;;;;12.27;11.07;;;;;;;;;;5051060;28;20469;-75
2023/01/08 02:20:19;;;;;;;11.20;10.20;;;;;;;;;;5050678;28;20442;-73
2023/01/08 02:22:51;;;;;;;10.60;9.50;;;;;;;;;;5050160;28;20827;-74
2023/01/08 02:25:21;;;;;;;10.60;9.70;;;;;;;;;;5050986;28;20509;-74
2023/01/08 02:27:51;;;;;;;9.60;8.70;;;;;;;;;;5050776;28;20473;-75
2023/01/08 02:30:18;;;;;;;10.80;9.73;;;;;;;;;;5050841;28;20453;-74
2023/01/08 02:32:45;;;;;;;11.00;9.83;;;;;;;;;;5061741;28;20418;-76
2023/01/08 02:35:12;;;;;;;9.87;8.97;;;;;;;;;;5075933;28;20433;-77
2023/01/08 02:37:40;;;;;;;10.10;9.20;;;;;;;;;;5075392;28;20457;-75
2023/01/08 02:40:11;;;;;;;11.87;10.77;;;;;;;;;;5070777;28;20452;-74
2023/01/08 02:42:45;;;;;;;10.70;9.70;;;;;;;;;;5056589;28;20445;-75
2023/01/08 02:45:21;;;;;;;10.77;9.07;;;;;;;;;;5050899;28;20893;-73
2023/01/08 02:47:51;;;;;;;10.33;9.43;;;;;;;;;;5050162;28;20987;-75
2023/01/08 02:50:21;;;;;;;10.90;9.87;;;;;;;;;;5050489;28;20472;-73
2023/01/08 02:52:53;;;;;;;9.60;8.80;;;;;;;;;;5049792;28;20437;-73
2023/01/08 02:55:21;;;;;;;8.83;8.03;;;;;;;;;;5050683;28;20445;-74
2023/01/08 02:57:49;;;;;;;9.13;8.30;;;;;;;;;;5051297;28;20465;-73
2023/01/08 03:00:17;;;;;;;10.00;8.40;;;;;;;;;;5049976;28;20449;-72
2023/01/08 03:02:45;;;;;;;9.40;8.50;;;;;;;;;;5051247;28;20444;-73
2023/01/08 03:05:16;;;;;;;9.77;7.70;;;;;;;;;;5050743;28;20453;-73
2023/01/08 03:07:43;;;;;;;8.80;8.00;;;;;;;;;;5050015;28;20465;-75
2023/01/08 03:10:11;;;;;;;8.60;7.90;;;;;;;;;;5050539;28;20445;-74
2023/01/08 03:12:44;;;;;;;9.67;8.77;;;;;;;;;;5050689;28;20462;-73
2023/01/08 03:15:13;;;;;;;8.23;7.53;;;;;;;;;;5041820;28;20667;-74
2023/01/08 03:17:43;;;;;;;8.30;7.50;;;;;;;;;;5030245;28;21013;-74
2023/01/08 03:20:12;;;;;;;7.40;6.80;;;;;;;;;;5029873;28;20461;-73
2023/01/08 03:22:41;;;;;;;8.30;7.50;;;;;;;;;;5029853;28;20807;-74
2023/01/08 03:25:09;;;;;;;8.27;7.57;;;;;;;;;;5029665;28;20454;-73
2023/01/08 03:27:39;;;;;;;8.43;7.63;;;;;;;;;;5029433;28;20462;-76
2023/01/08 03:30:08;;;;;;;8.70;7.90;;;;;;;;;;5029594;28;20459;-73
2023/01/08 03:32:35;;;;;;;7.63;7.03;;;;;;;;;;5029375;28;20447;-74
2023/01/08 03:35:04;;;;;;;8.53;7.67;;;;;;;;;;5029671;28;20442;-74
2023/01/08 03:37:33;;;;;;;7.90;7.30;;;;;;;;;;5029683;28;20825;-73
2023/01/08 03:40:01;;;;;;;8.20;7.40;;;;;;;;;;5029860;28;20458;-74
2023/01/08 03:42:29;;;;;;;9.10;8.33;;;;;;;;;;5029635;28;20438;-74
2023/01/08 03:44:56;;;;;;;9.17;8.30;;;;;;;;;;5029893;28;20908;-75
2023/01/08 03:47:23;;;;;;;8.43;7.73;;;;;;;;;;5029625;28;20533;-74
2023/01/08 03:49:51;;;;;;;10.00;9.07;;;;;;;;;;5029550;28;20438;-74
2023/01/08 03:52:23;;;;;;;10.23;9.30;;;;;;;;;;5029381;28;20442;-76
2023/01/08 03:54:50;;;;;;;11.03;9.93;;;;;;;;;;5029608;28;20449;-74
2023/01/08 03:57:17;;;;;;;11.43;10.33;;;;;;;;;;5029518;28;20439;-75
2023/01/08 03:59:44;;;;;;;10.60;9.60;;;;;;;;;;5029823;28;20454;-74
2023/01/08 04:02:12;;;;;;;10.40;9.43;;;;;;;;;;5029551;28;20449;-74
2023/01/08 04:04:39;;;;;;;11.60;10.50;;;;;;;;;;5029294;28;20930;-75
2023/01/08 04:07:06;;;;;;;11.40;10.37;;;;;;;;;;5029222;28;20512;-74
2023/01/08 04:09:34;;;;;;;12.87;11.13;;;;;;;;;;5029693;28;20462;-76
2023/01/08 04:12:01;;;;;;;11.57;10.43;;;;;;;;;;5031163;28;20446;-75
2023/01/08 04:14:28;;;;;;;11.50;10.40;;;;;;;;;;5035717;28;20457;-74
2023/01/08 04:16:55;;;;;;;11.40;10.30;;;;;;;;;;5053435;28;20433;-73
2023/01/08 04:19:22;;;;;;;10.97;9.90;;;;;;;;;;5052705;28;20473;-74
2023/01/08 04:21:50;;;;;;;10.87;9.90;;;;;;;;;;5052996;28;20453;-76
2023/01/08 04:24:17;;;;;;;11.00;9.90;;;;;;;;;;5052638;28;20481;-75
2023/01/08 04:26:46;;;;;;;10.37;9.37;;;;;;;;;;5052518;28;20869;-74
2023/01/08 04:29:13;;;;;;;10.83;9.73;;;;;;;;;;5052539;28;20472;-74
2023/01/08 04:31:40;;;;;;;9.90;9.00;;;;;;;;;;5053375;28;20800;-74
2023/01/08 04:34:07;;;;;;;11.07;9.97;;;;;;;;;;5052258;28;20933;-74
2023/01/08 04:36:34;;;;;;;10.77;9.77;;;;;;;;;;5052681;28;20452;-74
2023/01/08 04:39:01;;;;;;;11.00;8.80;;;;;;;;;;5052268;28;20458;-75
2023/01/08 04:41:28;;;;;;;11.13;10.03;;;;;;;;;;5052257;28;20438;-73
2023/01/08 04:43:56;;;;;;;9.70;8.80;;;;;;;;;;5052118;28;20450;-74
2023/01/08 04:46:23;;;;;;;10.40;9.40;;;;;;;;;;5052516;28;20477;-75
2023/01/08 04:48:50;;;;;;;9.27;8.47;;;;;;;;;;5052621;28;20465;-76
2023/01/08 04:51:18;;;;;;;9.90;9.00;;;;;;;;;;5052611;28;20445;-75
2023/01/08 04:53:45;;;;;;;10.70;9.77;;;;;;;;;;5051996;28;20454;-76
2023/01/08 04:56:12;;;;;;;10.17;9.13;;;;;;;;;;5052251;28;20499;-75
2023/01/08 04:58:40;;;;;;;9.40;8.60;;;;;;;;;;5052103;28;20511;-74
2023/01/08 05:01:12;;;;;;;5.10;4.67;;;;;;;;;;5052217;28;20449;-74
2023/01/08 05:03:39;;;;;;;6.63;5.30;;;;;;;;;;5051946;28;20441;-73
2023/01/08 05:06:06;;;;;;;4.93;4.53;;;;;;;;;;5051880;28;20879;-74
2023/01/08 05:08:33;;;;;;;4.67;4.27;;;;;;;;;;5051767;28;20458;-73
2023/01/08 05:11:00;;;;;;;4.03;3.70;;;;;;;;;;5052173;28;20420;-74
2023/01/08 05:13:27;;;;;;;4.03;3.73;;;;;;;;;;5052637;28;20445;-74
2023/01/08 05:15:55;;;;;;;4.20;3.90;;;;;;;;;;5037604;28;20447;-74
2023/01/08 05:18:23;;;;;;;3.63;3.30;;;;;;;;;;5031937;28;20481;-73
2023/01/08 05:20:50;;;;;;;3.80;3.50;;;;;;;;;;5031782;28;20949;-73
2023/01/08 05:23:17;;;;;;;4.13;3.73;;;;;;;;;;5031416;28;20496;-76
2023/01/08 05:25:44;;;;;;;3.37;3.07;;;;;;;;;;5032059;28;20447;-75
2023/01/08 05:28:11;;;;;;;3.20;2.97;;;;;;;;;;5031597;28;20479;-76
2023/01/08 05:30:38;;;;;;;3.13;3.00;;;;;;;;;;5031902;28;20515;-75
2023/01/08 05:33:05;;;;;;;2.90;2.70;;;;;;;;;;5031993;28;20438;-75
2023/01/08 05:35:34;;;;;;;2.97;2.77;;;;;;;;;;5032732;28;20503;-74
2023/01/08 05:38:01;;;;;;;5.27;2.60;;;;;;;;;;5032237;28;20463;-75
2023/01/08 05:40:28;;;;;;;2.50;2.40;;;;;;;;;;5031683;28;20454;-74
2023/01/08 05:42:55;;;;;;;2.70;2.50;;;;;;;;;;5031554;28;20446;-74
2023/01/08 05:45:22;;;;;;;3.00;2.10;;;;;;;;;;5031955;28;20446;-75
2023/01/08 05:47:49;;;;;;;2.57;2.47;;;;;;;;;;5071628;28;21041;-73
2023/01/08 05:50:16;;;;;;;2.37;2.27;;;;;;;;;;5073076;28;20448;-74
2023/01/08 05:52:44;;;;;;;2.97;2.20;;;;;;;;;;5074599;28;20502;-73
2023/01/08 05:55:11;;;;;;;2.47;2.00;;;;;;;;;;5073123;28;20441;-74
2023/01/08 05:57:38;;;;;;;2.50;2.30;;;;;;;;;;5072364;28;20491;-74
2023/01/08 06:00:09;;;;;;;2.27;2.17;;;;;;;;;;5071464;28;20974;-74
2023/01/08 06:02:36;;;;;;;2.10;2.00;;;;;;;;;;5070897;28;20527;-74
2023/01/08 06:05:03;;;;;;;3.87;2.00;;;;;;;;;;5071134;28;20471;-74
2023/01/08 06:07:30;;;;;;;4.03;2.30;;;;;;;;;;5070827;28;20479;-74
2023/01/08 06:09:59;;;;;;;1.97;1.87;;;;;;;;;;5071087;28;20452;-73
2023/01/08 06:12:26;;;;;;;1.93;1.73;;;;;;;;;;5071186;28;20841;-74
2023/01/08 06:14:53;;;;;;;2.33;2.23;;;;;;;;;;5064958;28;20442;-74
2023/01/08 06:17:20;;;;;;;2.33;2.23;;;;;;;;;;5051394;28;20442;-74
2023/01/08 06:19:47;;;;;;;2.10;2.00;;;;;;;;;;5051544;28;20438;-75
2023/01/08 06:22:14;;;;;;;1.83;1.73;;;;;;;;;;5051750;28;20941;-75
2023/01/08 06:24:41;;;;;;;1.90;1.80;;;;;;;;;;5050803;28;20923;-75
2023/01/08 06:27:09;;;;;;;2.30;2.10;;;;;;;;;;5050880;28;20844;-73
2023/01/08 06:29:36;;;;;;;2.07;1.97;;;;;;;;;;5050526;28;20481;-73
2023/01/08 06:32:03;;;;;;;1.73;1.73;;;;;;;;;;5050523;28;20452;-74
2023/01/08 06:34:30;;;;;;;1.80;1.70;;;;;;;;;;5049750;28;20511;-73
2023/01/08 06:36:57;;;;;;;1.87;1.73;;;;;;;;;;5050340;28;20484;-74
2023/01/08 06:39:24;;;;;;;2.03;1.93;;;;;;;;;;5050197;28;21056;-74
2023/01/08 06:41:51;;;;;;;1.87;1.77;;;;;;;;;;5050413;28;20476;-76
2023/01/08 06:44:20;;;;;;;2.03;1.93;;;;;;;;;;5050461;28;20452;-74
2023/01/08 06:46:47;;;;;;;1.97;1.70;;;;;;;;;;5050356;28;20980;-75
2023/01/08 06:49:16;;;;;;;1.90;1.80;;;;;;;;;;5050371;28;20807;-75
2023/01/08 06:51:43;;;;;;;1.90;1.80;;;;;;;;;;5050316;28;20449;-73
2023/01/08 06:54:10;;;;;;;2.20;2.10;;;;;;;;;;5049928;28;20441;-74
2023/01/08 06:56:37;;;;;;;1.50;1.50;;;;;;;;;;5050224;28;20945;-74
2023/01/08 06:59:04;;;;;;;2.00;1.90;;;;;;;;;;5050038;28;20461;-74
2023/01/08 07:01:32;;;;;;;2.00;1.80;;;;;;;;;;5049872;28;20445;-74
2023/01/08 07:03:59;;;;;;;1.97;1.87;;;;;;;;;;5049377;28;20446;-73
2023/01/08 07:06:26;;;;;;;1.60;1.50;;;;;;;;;;5050180;28;20857;-75
2023/01/08 07:08:53;;;;;;;1.77;1.70;;;;;;;;;;5049910;28;20466;-74
2023/01/08 07:11:20;;;;;;;1.90;1.80;;;;;;;;;;5050134;28;20448;-74
2023/01/08 07:13:47;;;;;;;1.63;1.63;;;;;;;;;;5049881;28;20757;-74
2023/01/08 07:16:15;;;;;;;1.83;1.73;;;;;;;;;;5032404;28;20443;-75
2023/01/08 07:18:43;;;;;;;1.83;1.73;;;;;;;;;;5030124;28;20497;-74
2023/01/08 07:21:10;;;;;;;1.70;1.60;;;;;;;;;;5030158;28;20442;-75
2023/01/08 07:23:37;;;;;;;1.73;1.63;;;;;;;;;;5030126;28;20477;-73
2023/01/08 07:26:05;;;;;;;1.90;1.60;;;;;;;;;;5030238;28;20886;-75
2023/01/08 07:28:32;;;;;;;1.50;1.40;;;;;;;;;;5029706;28;21040;-73
2023/01/08 07:31:03;;;;;;;1.60;1.50;;;;;;;;;;5029892;28;20450;-73
2023/01/08 07:33:30;;;;;;;1.60;1.50;;;;;;;;;;5030181;28;20454;-74
2023/01/08 07:35:58;;;;;;;1.77;1.67;;;;;;;;;;5030214;28;20446;-75
2023/01/08 07:38:25;;;;;;;1.50;1.50;;;;;;;;;;5029953;28;20528;-75
2023/01/08 07:40:52;;;;;;;1.50;1.50;;;;;;;;;;5029891;28;21047;-74
2023/01/08 07:43:19;;;;;;;2.20;2.00;;;;;;;;;;5029350;28;20870;-76
2023/01/08 07:45:46;;;;;;;1.83;1.73;;;;;;;;;;5029630;28;20837;-74
2023/01/08 07:48:15;;;;;;;1.90;1.80;;;;;;;;;;5033591;28;20485;-76
2023/01/08 07:50:42;;;;;;;1.60;1.50;;;;;;;;;;5033899;28;20446;-74
2023/01/08 07:53:11;;;;;;;2.73;1.90;;;;;;;;;;5051781;28;20531;-75
2023/01/08 07:55:38;;;;;;;1.57;1.57;;;;;;;;;;5073544;28;20444;-73
2023/01/08 07:58:09;;;;;;;1.87;1.70;;;;;;;;;;5073450;28;20464;-76
2023/01/08 08:00:36;;;;;;;1.70;1.60;;;;;;;;;;5073583;28;20527;-74
2023/01/08 08:03:04;;;;;;;2.27;1.47;;;;;;;;;;5073009;28;20845;-74
2023/01/08 08:05:31;;;;;;;1.90;1.80;;;;;;;;;;5073531;28;20455;-75
2023/01/08 08:07:58;;;;;;;2.00;1.90;;;;;;;;;;5073338;28;20483;-75
2023/01/08 08:10:26;;;;;;;1.53;1.43;;;;;;;;;;5073056;28;20443;-74
2023/01/08 08:12:54;;;;;;;2.50;1.60;;;;;;;;;;5072844;28;20510;-75
2023/01/08 08:15:21;;;;;;;1.63;1.40;;;;;;;;;;5063213;28;20454;-75
2023/01/08 08:17:48;;;;;;;2.00;1.90;;;;;;;;;;5053345;28;20480;-74
2023/01/08 08:20:16;;;;;;;1.60;1.60;;;;;;;;;;5052922;28;20441;-75
2023/01/08 08:22:43;;;;;;;1.60;1.60;;;;;;;;;;5052933;28;20449;-73
2023/01/08 08:25:10;;;;;;;2.17;2.07;;;;;;;;;;5053006;28;20457;-74
2023/01/08 08:27:39;;;;;;;1.33;1.33;;;;;;;;;;5052991;28;20484;-73
2023/01/08 08:30:06;;;;;;;2.00;1.90;;;;;;;;;;5053658;28;20476;-75
2023/01/08 08:32:33;;;;;;;1.97;1.73;;;;;;;;;;5052991;28;20536;-73
2023/01/08 08:35:01;;;;;;;1.63;1.57;;;;;;;;;;5053234;28;20600;-75
2023/01/08 08:37:28;;;;;;;1.87;1.77;;;;;;;;;;5052923;28;20561;-76
2023/01/08 08:39:55;;;;;;;1.60;1.50;;;;;;;;;;5053748;28;20472;-74
2023/01/08 08:42:22;;;;;;;2.07;1.97;;;;;;;;;;5054391;28;21134;-73
2023/01/08 08:44:50;;;;;;;1.80;1.70;;;;;;;;;;5055043;28;20453;-74
2023/01/08 08:47:17;;;;;;;1.80;1.70;;;;;;;;;;5059584;28;20485;-73
2023/01/08 08:49:44;;;;;;;2.57;2.00;;;;;;;;;;5058897;28;20446;-73
2023/01/08 08:52:11;;;;;;;1.83;1.73;;;;;;;;;;5057778;28;20933;-76
2023/01/08 08:54:40;;;;;;;2.13;2.03;;;;;;;;;;5055647;28;20476;-74
2023/01/08 08:57:07;;;;;;;2.07;1.87;;;;;;;;;;5055533;28;20499;-75
2023/01/08 08:59:34;;;;;;;1.70;1.67;;;;;;;;;;5054930;28;20492;-75
2023/01/08 09:02:03;;;;;;;1.77;1.67;;;;;;;;;;5052581;28;20959;-75
2023/01/08 09:04:30;;;;;;;2.40;2.30;;;;;;;;;;5052343;28;20449;-75
2023/01/08 09:06:57;;;;;;;2.10;1.97;;;;;;;;;;5052044;28;20477;-75
2023/01/08 09:09:24;;;;;;;2.10;2.00;;;;;;;;;;5052465;28;20497;-75
2023/01/08 09:11:51;;;;;;;2.27;1.80;;;;;;;;;;5051918;28;20889;-77
2023/01/08 09:14:18;;;;;;;1.87;1.77;;;;;;;;;;5051777;28;20445;-74
2023/01/08 09:16:45;;;;;;;1.90;1.80;;;;;;;;;;5051946;28;20459;-73
2023/01/08 09:19:14;;;;;;;1.80;1.70;;;;;;;;;;5051959;28;20458;-74
2023/01/08 09:21:41;;;;;;;2.57;2.47;;;;;;;;;;5051756;28;20442;-74
2023/01/08 09:24:09;;;;;;;2.70;2.50;;;;;;;;;;5051558;28;20804;-75
2023/01/08 09:26:36;;;;;;;2.30;2.20;;;;;;;;;;5051436;28;20960;-75
2023/01/08 09:29:03;;;;;;;1.80;1.70;;;;;;;;;;5051854;28;20481;-75
2023/01/08 09:31:30;;;;;;;2.40;2.20;;;;;;;;;;5052012;28;20445;-74
2023/01/08 09:33:57;;;;;;;2.07;1.97;;;;;;;;;;5051191;28;20472;-75
2023/01/08 09:36:25;;;;;;;2.60;2.40;;;;;;;;;;5051342;28;20937;-75
2023/01/08 09:38:52;;;;;;;1.63;1.53;;;;;;;;;;5051373;28;20461;-75
2023/01/08 09:41:21;;;;;;;1.77;1.67;;;;;;;;;;5051395;28;20441;-75
2023/01/08 09:43:50;;;;;;;2.10;2.00;;;;;;;;;;5051452;28;20456;-74
2023/01/08 09:46:19;;;;;;;1.87;1.77;;;;;;;;;;5051755;28;20446;-76
2023/01/08 09:48:46;;;;;;;2.10;2.00;;;;;;;;;;5051276;28;20481;-73
2023/01/08 09:51:14;;;;;;;2.00;1.90;;;;;;;;;;5051778;28;20967;-74
2023/01/08 09:53:43;;;;;;;2.00;1.90;;;;;;;;;;5051775;28;20858;-75
2023/01/08 09:56:11;;;;;;;1.90;1.80;;;;;;;;;;5051618;28;20473;-75
2023/01/08 09:58:39;;;;;;;2.10;2.00;;;;;;;;;;5051808;28;20461;-73
2023/01/08 10:01:07;;;;;;;2.50;2.20;;;;;;;;;;5051920;28;20446;-75
2023/01/08 10:03:39;;;;;;;2.77;2.03;;;;;;;;;;5051493;28;20544;-76
2023/01/08 10:06:09;;;;;;;1.90;1.80;;;;;;;;;;5051517;28;20441;-75
2023/01/08 10:08:36;;;;;;;2.10;2.00;;;;;;;;;;5051059;28;20557;-74
2023/01/08 10:11:04;;;;;;;1.60;1.60;;;;;;;;;;5050629;28;21145;-75
2023/01/08 10:13:32;;;;;;;1.80;1.70;;;;;;;;;;5057475;28;20468;-75
2023/01/08 10:15:59;;;;;;;1.80;1.70;;;;;;;;;;5050450;28;20446;-75
2023/01/08 10:18:27;;;;;;;1.50;1.50;;;;;;;;;;5047510;28;20485;-75
2023/01/08 10:20:54;;;;;;;1.90;1.80;;;;;;;;;;5044658;28;20442;-74
2023/01/08 10:23:22;;;;;;;1.90;1.80;;;;;;;;;;5033047;28;20461;-74
2023/01/08 10:25:51;;;;;;;4.03;3.73;;;;;;;;;;5030669;28;20839;-74
2023/01/08 10:28:21;;;;;;;7.23;4.80;;;;;;;;;;5030481;28;20513;-76
2023/01/08 10:30:48;;;;;;;2.27;2.17;;;;;;;;;;5033143;28;20451;-75
2023/01/08 10:33:18;;;;;;;1.90;1.80;;;;;;;;;;5030424;28;20469;-75
2023/01/08 10:35:51;;;;;;;1.87;1.77;;;;;;;;;;5030898;28;20447;-75
2023/01/08 10:38:26;;;;;;;2.37;1.90;;;;;;;;;;5031022;28;20462;-76
2023/01/08 10:40:53;;;;;;;1.63;1.60;;;;;;;;;;5030585;28;20433;-76
2023/01/08 10:43:22;;;;;;;1.63;1.63;;;;;;;;;;5030351;28;20462;-75
2023/01/08 10:45:56;;;;;;;1.63;1.40;;;;;;;;;;5030698;28;20446;-74
2023/01/08 10:48:23;;;;;;;1.70;1.60;;;;;;;;;;5030646;28;20482;-75
2023/01/08 10:50:51;;;;;;;1.70;1.60;;;;;;;;;;5030348;28;20446;-76
2023/01/08 10:53:24;;;;;;;1.70;1.70;;;;;;;;;;5029789;28;20852;-75
2023/01/08 10:55:58;;;;;;;1.90;1.73;;;;;;;;;;5030186;28;20958;-75
2023/01/08 10:58:27;;;;;;;1.57;1.50;;;;;;;;;;5030423;28;20549;-75
2023/01/08 11:00:56;;;;;;;1.20;1.20;;;;;;;;;;5030318;28;20526;-75
2023/01/08 11:03:26;;;;;;;1.63;1.63;;;;;;;;;;5029746;28;20953;-76
2023/01/08 11:05:53;;;;;;;1.40;1.40;;;;;;;;;;5030387;28;20442;-76
2023/01/08 11:08:21;;;;;;;1.30;1.30;;;;;;;;;;5030208;28;21025;-74
2023/01/08 11:10:54;;;;;;;1.70;1.60;;;;;;;;;;5030620;28;20469;-73
2023/01/08 11:13:21;;;;;;;1.70;1.60;;;;;;;;;;5030119;28;20438;-75
2023/01/08 11:15:59;;;;;;;1.30;1.30;;;;;;;;;;5043663;28;20445;-73
2023/01/08 11:18:27;;;;;;;1.27;1.27;;;;;;;;;;5050592;28;20453;-74
2023/01/08 11:21:06;;;;;;;1.23;1.23;;;;;;;;;;5051368;28;20917;-75
2023/01/08 11:23:33;;;;;;;1.43;1.40;;;;;;;;;;5049098;28;20488;-77
2023/01/08 11:26:02;;;;;;;1.43;1.40;;;;;;;;;;5048256;28;20433;-76
2023/01/08 11:28:33;;;;;;;1.27;1.27;;;;;;;;;;5050554;28;20485;-76
2023/01/08 11:31:05;;;;;;;1.50;1.40;;;;;;;;;;5052846;28;20457;-74
2023/01/08 11:33:33;;;;;;;1.13;1.13;;;;;;;;;;5049928;28;20450;-74
2023/01/08 11:36:02;;;;;;;1.40;1.40;;;;;;;;;;5050979;28;20491;-74
2023/01/08 11:38:29;;;;;;;1.23;1.23;;;;;;;;;;5049895;28;20477;-74
2023/01/08 11:41:03;;;;;;;1.60;1.57;;;;;;;;;;5050674;28;20452;-73
2023/01/08 11:43:38;;;;;;;1.40;1.30;;;;;;;;;;5050623;28;20457;-76
2023/01/08 11:46:21;;;;;;;1.70;1.60;;;;;;;;;;5049787;28;20445;-74
2023/01/08 11:48:56;;;;;;;2.17;2.07;;;;;;;;;;5049350;28;21035;-74
2023/01/08 11:51:30;;;;;;;1.20;1.20;;;;;;;;;;5049364;28;20449;-75
2023/01/08 11:54:03;;;;;;;1.47;1.07;;;;;;;;;;5049231;28;20446;-76
2023/01/08 11:56:37;;;;;;;1.33;1.33;;;;;;;;;;5049543;28;20457;-75
2023/01/08 11:59:09;;;;;;;1.73;1.63;;;;;;;;;;5049768;28;20836;-74
2023/01/08 12:01:45;;;;;;;2.13;1.67;;;;;;;;;;5049833;28;20426;-75
2023/01/08 12:04:23;;;;;;;1.70;1.60;;;;;;;;;;5049397;28;20943;-74
2023/01/08 12:06:55;;;;;;;1.30;1.30;;;;;;;;;;5050724;28;20468;-76
2023/01/08 12:09:29;;;;;;;1.80;1.70;;;;;;;;;;5049768;28;20485;-75
2023/01/08 12:11:59;;;;;;;1.60;1.60;;;;;;;;;;5049731;28;20456;-75
2023/01/08 12:14:31;;;;;;;1.60;1.50;;;;;;;;;;5048921;28;20460;-74
2023/01/08 12:17:10;;;;;;;1.97;1.67;;;;;;;;;;5049615;28;20510;-76
2023/01/08 12:19:47;;;;;;;1.20;1.20;;;;;;;;;;5049874;28;20817;-75
2023/01/08 12:22:31;;;;;;;1.40;1.30;;;;;;;;;;5049542;28;20452;-75
2023/01/08 12:25:05;;;;;;;1.60;1.50;;;;;;;;;;5049978;28;20469;-74
2023/01/08 12:27:35;;;;;;;2.10;1.40;;;;;;;;;;5049933;28;20448;-76
2023/01/08 12:30:10;;;;;;;1.30;1.20;;;;;;;;;;5049464;28;20567;-75
2023/01/08 12:32:41;;;;;;;1.47;1.37;;;;;;;;;;5050416;28;20448;-75
2023/01/08 12:35:10;;;;;;;1.20;1.20;;;;;;;;;;5053857;28;20861;-76
2023/01/08 12:37:41;;;;;;;1.60;1.60;;;;;;;;;;5054044;28;20488;-75
2023/01/08 12:40:14;;;;;;;0.90;0.90;;;;;;;;;;5053453;28;20523;-73
2023/01/08 12:42:42;;;;;;;1.43;1.33;;;;;;;;;;5052555;28;20568;-74
2023/01/08 12:45:15;;;;;;;1.80;1.70;;;;;;;;;;5052718;28;20495;-74
2023/01/08 12:47:44;;;;;;;1.33;1.10;;;;;;;;;;5053971;28;20480;-74
2023/01/08 12:50:21;;;;;;;1.20;1.20;;;;;;;;;;5054401;28;20843;-75
2023/01/08 12:52:52;;;;;;;1.30;1.30;;;;;;;;;;5054048;28;21001;-74
2023/01/08 12:55:27;;;;;;;2.60;1.10;;;;;;;;;;5054370;28;20834;-74
2023/01/08 12:57:58;;;;;;;3.27;2.60;;;;;;;;;;5054405;28;20488;-74
2023/01/08 13:00:27;;;;;;;1.30;1.30;;;;;;;;;;5054399;28;20460;-74
2023/01/08 13:02:58;;;;;;;1.20;1.20;;;;;;;;;;5052912;28;20513;-74
2023/01/08 13:05:30;;;;;;;1.10;1.10;;;;;;;;;;5052499;28;20441;-76
2023/01/08 13:07:59;;;;;;;1.20;1.20;;;;;;;;;;5051608;28;20466;-75
2023/01/08 13:10:32;;;;;;;1.10;1.10;;;;;;;;;;5052163;28;20481;-75
2023/01/08 13:13:00;;;;;;;1.53;1.43;;;;;;;;;;5052213;28;20452;-75
2023/01/08 13:15:28;;;;;;;1.47;1.30;;;;;;;;;;5041492;28;20442;-75
2023/01/08 13:17:57;;;;;;;2.30;1.50;;;;;;;;;;5032153;28;20477;-74
2023/01/08 13:20:25;;;;;;;1.83;1.73;;;;;;;;;;5031908;28;20450;-75
2023/01/08 13:22:53;;;;;;;1.40;1.40;;;;;;;;;;5031703;28;20450;-74
2023/01/08 13:25:28;;;;;;;1.60;1.50;;;;;;;;;;5031696;28;20479;-74
2023/01/08 13:27:55;;;;;;;1.00;1.00;;;;;;;;;;5032336;28;20504;-75
2023/01/08 13:30:39;;;;;;;1.27;1.27;;;;;;;;;;5032001;28;20554;-74
2023/01/08 13:33:25;;;;;;;1.33;1.30;;;;;;;;;;5031536;28;20478;-75
2023/01/08 13:36:07;;;;;;;1.30;1.20;;;;;;;;;;5031327;28;20554;-75
2023/01/08 13:38:34;;;;;;;1.70;1.60;;;;;;;;;;5031774;28;20545;-74
2023/01/08 13:41:01;;;;;;;1.43;1.20;;;;;;;;;;5037510;28;20923;-74
2023/01/08 13:43:29;;;;;;;1.30;1.30;;;;;;;;;;5049730;28;20941;-76
2023/01/08 13:46:07;;;;;;;1.60;1.50;;;;;;;;;;5050625;28;20809;-76
2023/01/08 13:48:35;;;;;;;1.20;1.20;;;;;;;;;;5051470;28;20472;-76
2023/01/08 13:51:04;;;;;;;1.33;1.23;;;;;;;;;;5051430;28;20456;-74
2023/01/08 13:53:31;;;;;;;2.30;2.10;;;;;;;;;;5051203;28;20445;-74
2023/01/08 13:55:59;;;;;;;1.63;1.53;;;;;;;;;;5051338;28;20526;-74
2023/01/08 13:58:27;;;;;;;1.57;1.47;;;;;;;;;;5051014;28;20466;-75
2023/01/08 14:00:55;;;;;;;0.93;0.93;;;;;;;;;;5051333;28;20445;-75
2023/01/08 14:03:23;;;;;;;1.53;1.40;;;;;;;;;;5050767;28;20450;-74
2023/01/08 14:05:50;;;;;;;1.33;1.33;;;;;;;;;;5051134;28;20460;-75
2023/01/08 14:08:25;;;;;;;1.90;1.80;;;;;;;;;;5051020;28;20523;-74
2023/01/08 14:10:52;;;;;;;3.37;1.40;;;;;;;;;;5051258;28;20477;-75
2023/01/08 14:13:23;;;;;;;1.43;1.40;;;;;;;;;;5051021;28;20454;-75
2023/01/08 14:15:50;;;;;;;2.70;1.40;;;;;;;;;;5051496;28;20446;-76
2023/01/08 14:18:17;;;;;;;1.50;1.40;;;;;;;;;;5051719;28;20461;-75
2023/01/08 14:20:45;;;;;;;1.40;1.30;;;;;;;;;;5071005;28;20441;-75
2023/01/08 14:23:13;;;;;;;1.80;1.70;;;;;;;;;;5070464;28;20451;-75
2023/01/08 14:25:42;;;;;;;1.40;1.30;;;;;;;;;;5070700;28;20952;-76
2023/01/08 14:28:16;;;;;;;1.83;1.40;;;;;;;;;;5071474;28;20480;-77
2023/01/08 14:30:47;;;;;;;1.30;1.30;;;;;;;;;;5070948;28;20476;-76
2023/01/08 14:33:14;;;;;;;1.27;1.17;;;;;;;;;;5071442;28;20452;-75
2023/01/08 14:35:41;;;;;;;1.00;1.00;;;;;;;;;;5070936;28;20449;-74
2023/01/08 14:38:12;;;;;;;1.20;1.20;;;;;;;;;;5070080;28;20514;-74
2023/01/08 14:40:41;;;;;;;1.20;1.20;;;;;;;;;;5069782;28;20928;-75
2023/01/08 14:43:12;;;;;;;1.30;1.30;;;;;;;;;;5070294;28;20447;-76
2023/01/08 14:45:40;;;;;;;3.27;1.33;;;;;;;;;;5070368;28;20448;-74
2023/01/08 14:48:11;;;;;;;1.20;1.10;;;;;;;;;;5070364;28;20506;-74